<?xml version="1.0" encoding="UTF-8" standalone="no" ?>
<gpx xmlns="http://www.topografix.com/GPX/1/1" xmlns:xsi="http://www.w3.org/2001/XMLSchema-instance" xsi:schemaLocation="http://www.topografix.com/GPX/1/1 http://www.topografix.com/GPX/1/1/gpx.xsd" version="1.1" creator="VisuGPX - https://www.visugpx.com">
  <metadata>
    <name>Etape 6 Raid Pyrénées</name>
    <desc><![CDATA[Etape 6 Vernet les bains - Argeles sur Mer ]]></desc>
  </metadata>
  <trk>
    <name><![CDATA[6 Vernet les bains Argeles sur mer]]></name>
    <trkseg>
      <trkpt lat="42.55354" lon="2.38952">
        <ele>334</ele>
        <time>2017-02-19T15:16:02Z</time>
      </trkpt>
      <trkpt lat="42.55462" lon="2.38814">
        <ele>331</ele>
        <time>2017-02-19T14:28:02Z</time>
      </trkpt>
      <trkpt lat="42.55444" lon="2.38607">
        <ele>337</ele>
        <time>2017-02-19T13:48:02Z</time>
      </trkpt>
      <trkpt lat="42.55687" lon="2.38441">
        <ele>340</ele>
        <time>2017-02-19T12:34:02Z</time>
      </trkpt>
      <trkpt lat="42.58725" lon="2.36979">
        <ele>341</ele>
        <time>2017-02-19T11:12:02Z</time>
      </trkpt>
      <trkpt lat="42.59439" lon="2.37376">
        <ele>335</ele>
        <time>2017-02-19T11:04:02Z</time>
      </trkpt>
      <trkpt lat="42.6095" lon="2.40772">
        <ele>330</ele>
        <time>2017-02-19T10:46:02Z</time>
      </trkpt>
      <trkpt lat="42.61403" lon="2.41165">
        <ele>322</ele>
        <time>2017-02-19T10:18:02Z</time>
      </trkpt>
      <trkpt lat="42.61527" lon="2.4164">
        <ele>325</ele>
        <time>2017-02-19T09:58:02Z</time>
      </trkpt>
      <trkpt lat="42.61548" lon="2.41716">
        <ele>315</ele>
        <time>2017-02-19T09:40:02Z</time>
      </trkpt>
      <trkpt lat="42.61698" lon="2.42606">
        <ele>316</ele>
        <time>2017-02-19T09:26:02Z</time>
      </trkpt>
      <trkpt lat="42.61856" lon="2.42921">
        <ele>302</ele>
        <time>2017-02-19T08:58:02Z</time>
      </trkpt>
      <trkpt lat="42.62597" lon="2.44856">
        <ele>302</ele>
        <time>2017-02-19T08:48:02Z</time>
      </trkpt>
      <trkpt lat="42.63154" lon="2.45808">
        <ele>290</ele>
        <time>2017-02-19T08:26:02Z</time>
      </trkpt>
      <trkpt lat="42.63777" lon="2.47233">
        <ele>279</ele>
        <time>2017-02-19T08:18:02Z</time>
      </trkpt>
      <trkpt lat="42.64072" lon="2.47955">
        <ele>270</ele>
        <time>2017-02-19T07:24:02Z</time>
      </trkpt>
      <trkpt lat="42.64109" lon="2.48056">
        <ele>271</ele>
        <time>2017-02-19T07:12:02Z</time>
      </trkpt>
      <trkpt lat="42.64212" lon="2.48419">
        <ele>272</ele>
        <time>2017-02-19T06:38:02Z</time>
      </trkpt>
      <trkpt lat="42.6439" lon="2.49105">
        <ele>263</ele>
        <time>2017-02-19T05:38:02Z</time>
      </trkpt>
      <trkpt lat="42.64444" lon="2.50505">
        <ele>256</ele>
        <time>2017-02-19T04:28:02Z</time>
      </trkpt>
      <trkpt lat="42.64548" lon="2.51036">
        <ele>247</ele>
        <time>2017-02-19T04:08:02Z</time>
      </trkpt>
      <trkpt lat="42.64574" lon="2.51147">
        <ele>258</ele>
        <time>2017-02-19T04:04:02Z</time>
      </trkpt>
      <trkpt lat="42.64701" lon="2.51755">
        <ele>273</ele>
        <time>2017-02-19T03:24:02Z</time>
      </trkpt>
      <trkpt lat="42.64702" lon="2.51834">
        <ele>270</ele>
        <time>2017-02-19T03:18:02Z</time>
      </trkpt>
      <trkpt lat="42.64643" lon="2.5216">
        <ele>247</ele>
        <time>2017-02-19T02:56:02Z</time>
      </trkpt>
      <trkpt lat="42.64653" lon="2.52294">
        <ele>247</ele>
        <time>2017-02-19T02:44:02Z</time>
      </trkpt>
      <trkpt lat="42.64989" lon="2.53099">
        <ele>244</ele>
        <time>2017-02-19T01:36:02Z</time>
      </trkpt>
      <trkpt lat="42.65073" lon="2.53475">
        <ele>240</ele>
        <time>2017-02-19T01:16:02Z</time>
      </trkpt>
      <trkpt lat="42.65097" lon="2.53759">
        <ele>251</ele>
        <time>2017-02-19T00:56:02Z</time>
      </trkpt>
      <trkpt lat="42.651" lon="2.53985">
        <ele>252</ele>
        <time>2017-02-19T00:42:02Z</time>
      </trkpt>
      <trkpt lat="42.65256" lon="2.54508">
        <ele>251</ele>
        <time>2017-02-19T00:04:02Z</time>
      </trkpt>
      <trkpt lat="42.65234" lon="2.55111">
        <ele>220</ele>
        <time>2017-02-18T23:28:02Z</time>
      </trkpt>
      <trkpt lat="42.65232" lon="2.55239">
        <ele>217</ele>
        <time>2017-02-18T23:14:02Z</time>
      </trkpt>
      <trkpt lat="42.65189" lon="2.55365">
        <ele>216</ele>
        <time>2017-02-18T22:54:02Z</time>
      </trkpt>
      <trkpt lat="42.64755" lon="2.55797">
        <ele>223</ele>
        <time>2017-02-18T22:10:02Z</time>
      </trkpt>
      <trkpt lat="42.64587" lon="2.55997">
        <ele>232</ele>
        <time>2017-02-18T21:58:02Z</time>
      </trkpt>
      <trkpt lat="42.64552" lon="2.56051">
        <ele>234</ele>
        <time>2017-02-18T21:46:02Z</time>
      </trkpt>
      <trkpt lat="42.64537" lon="2.56158">
        <ele>237</ele>
        <time>2017-02-18T21:22:02Z</time>
      </trkpt>
      <trkpt lat="42.6461" lon="2.56358">
        <ele>235</ele>
        <time>2017-02-18T21:02:02Z</time>
      </trkpt>
      <trkpt lat="42.64683" lon="2.56534">
        <ele>230</ele>
        <time>2017-02-18T20:48:02Z</time>
      </trkpt>
      <trkpt lat="42.647" lon="2.56762">
        <ele>222</ele>
        <time>2017-02-18T20:26:02Z</time>
      </trkpt>
      <trkpt lat="42.64893" lon="2.56934">
        <ele>212</ele>
        <time>2017-02-18T19:52:02Z</time>
      </trkpt>
      <trkpt lat="42.64964" lon="2.57119">
        <ele>213</ele>
        <time>2017-02-18T19:40:02Z</time>
      </trkpt>
      <trkpt lat="42.6541" lon="2.58052">
        <ele>187</ele>
        <time>2017-02-18T18:44:02Z</time>
      </trkpt>
      <trkpt lat="42.65412" lon="2.58121">
        <ele>187</ele>
        <time>2017-02-18T18:30:02Z</time>
      </trkpt>
      <trkpt lat="42.65332" lon="2.58168">
        <ele>187</ele>
        <time>2017-02-18T18:06:02Z</time>
      </trkpt>
      <trkpt lat="42.65314" lon="2.5823">
        <ele>187</ele>
        <time>2017-02-18T17:56:02Z</time>
      </trkpt>
      <trkpt lat="42.65031" lon="2.58652">
        <ele>186</ele>
        <time>2017-02-18T17:08:02Z</time>
      </trkpt>
      <trkpt lat="42.64918" lon="2.58772">
        <ele>189</ele>
        <time>2017-02-18T16:48:02Z</time>
      </trkpt>
      <trkpt lat="42.64895" lon="2.58962">
        <ele>180</ele>
        <time>2017-02-18T16:32:02Z</time>
      </trkpt>
      <trkpt lat="42.64985" lon="2.59309">
        <ele>181</ele>
        <time>2017-02-18T16:10:02Z</time>
      </trkpt>
      <trkpt lat="42.65081" lon="2.59603">
        <ele>176</ele>
        <time>2017-02-18T15:52:02Z</time>
      </trkpt>
      <trkpt lat="42.65099" lon="2.59954">
        <ele>183</ele>
        <time>2017-02-18T15:34:02Z</time>
      </trkpt>
      <trkpt lat="42.65155" lon="2.60429">
        <ele>178</ele>
        <time>2017-02-18T15:10:02Z</time>
      </trkpt>
      <trkpt lat="42.65286" lon="2.60738">
        <ele>178</ele>
        <time>2017-02-18T14:54:02Z</time>
      </trkpt>
      <trkpt lat="42.65367" lon="2.60811">
        <ele>172</ele>
        <time>2017-02-18T14:38:02Z</time>
      </trkpt>
      <trkpt lat="42.65488" lon="2.60972">
        <ele>169</ele>
        <time>2017-02-18T14:32:02Z</time>
      </trkpt>
      <trkpt lat="42.65676" lon="2.61146">
        <ele>163</ele>
        <time>2017-02-18T13:52:02Z</time>
      </trkpt>
      <trkpt lat="42.65637" lon="2.61532">
        <ele>160</ele>
        <time>2017-02-18T12:16:02Z</time>
      </trkpt>
      <trkpt lat="42.65558" lon="2.61853">
        <ele>163</ele>
        <time>2017-02-18T12:10:02Z</time>
      </trkpt>
      <trkpt lat="42.65576" lon="2.62074">
        <ele>162</ele>
        <time>2017-02-18T11:52:02Z</time>
      </trkpt>
      <trkpt lat="42.6559" lon="2.62158">
        <ele>164</ele>
        <time>2017-02-18T11:42:02Z</time>
      </trkpt>
      <trkpt lat="42.6556" lon="2.62351">
        <ele>164</ele>
        <time>2017-02-18T10:50:02Z</time>
      </trkpt>
      <trkpt lat="42.65185" lon="2.62334">
        <ele>170</ele>
        <time>2017-02-18T10:02:02Z</time>
      </trkpt>
      <trkpt lat="42.65126" lon="2.62258">
        <ele>177</ele>
        <time>2017-02-18T09:40:02Z</time>
      </trkpt>
      <trkpt lat="42.65036" lon="2.6226">
        <ele>187</ele>
        <time>2017-02-18T09:22:02Z</time>
      </trkpt>
      <trkpt lat="42.64945" lon="2.62412">
        <ele>181</ele>
        <time>2017-02-18T08:56:02Z</time>
      </trkpt>
      <trkpt lat="42.64821" lon="2.62507">
        <ele>183</ele>
        <time>2017-02-18T08:46:02Z</time>
      </trkpt>
      <trkpt lat="42.64678" lon="2.6252">
        <ele>193</ele>
        <time>2017-02-18T08:28:02Z</time>
      </trkpt>
      <trkpt lat="42.64537" lon="2.62403">
        <ele>198</ele>
        <time>2017-02-18T08:02:02Z</time>
      </trkpt>
      <trkpt lat="42.64509" lon="2.6245">
        <ele>195</ele>
        <time>2017-02-18T07:54:02Z</time>
      </trkpt>
      <trkpt lat="42.64504" lon="2.62587">
        <ele>199</ele>
        <time>2017-02-18T07:46:02Z</time>
      </trkpt>
      <trkpt lat="42.64508" lon="2.62692">
        <ele>211</ele>
        <time>2017-02-18T07:18:02Z</time>
      </trkpt>
      <trkpt lat="42.64487" lon="2.62704">
        <ele>212</ele>
        <time>2017-02-18T07:00:02Z</time>
      </trkpt>
      <trkpt lat="42.64468" lon="2.62659">
        <ele>205</ele>
        <time>2017-02-18T06:32:02Z</time>
      </trkpt>
      <trkpt lat="42.64402" lon="2.62693">
        <ele>214</ele>
        <time>2017-02-18T06:08:02Z</time>
      </trkpt>
      <trkpt lat="42.64341" lon="2.62675">
        <ele>209</ele>
        <time>2017-02-18T05:50:02Z</time>
      </trkpt>
      <trkpt lat="42.64297" lon="2.62706">
        <ele>217</ele>
        <time>2017-02-18T05:28:02Z</time>
      </trkpt>
      <trkpt lat="42.64302" lon="2.62719">
        <ele>221</ele>
        <time>2017-02-18T05:18:02Z</time>
      </trkpt>
      <trkpt lat="42.64379" lon="2.62724">
        <ele>224</ele>
        <time>2017-02-18T04:52:02Z</time>
      </trkpt>
      <trkpt lat="42.64453" lon="2.62745">
        <ele>224</ele>
        <time>2017-02-18T04:14:02Z</time>
      </trkpt>
      <trkpt lat="42.64398" lon="2.62756">
        <ele>234</ele>
        <time>2017-02-18T03:56:02Z</time>
      </trkpt>
      <trkpt lat="42.6435" lon="2.6275">
        <ele>231</ele>
        <time>2017-02-18T03:50:02Z</time>
      </trkpt>
      <trkpt lat="42.6425" lon="2.62782">
        <ele>236</ele>
        <time>2017-02-18T03:26:02Z</time>
      </trkpt>
      <trkpt lat="42.64242" lon="2.62808">
        <ele>244</ele>
        <time>2017-02-18T03:04:02Z</time>
      </trkpt>
      <trkpt lat="42.64317" lon="2.62812">
        <ele>249</ele>
        <time>2017-02-18T02:32:02Z</time>
      </trkpt>
      <trkpt lat="42.64414" lon="2.62822">
        <ele>254</ele>
        <time>2017-02-18T02:04:02Z</time>
      </trkpt>
      <trkpt lat="42.64442" lon="2.62838">
        <ele>247</ele>
        <time>2017-02-18T01:54:02Z</time>
      </trkpt>
      <trkpt lat="42.64451" lon="2.6289">
        <ele>249</ele>
        <time>2017-02-18T01:40:02Z</time>
      </trkpt>
      <trkpt lat="42.64423" lon="2.62953">
        <ele>263</ele>
        <time>2017-02-18T01:30:02Z</time>
      </trkpt>
      <trkpt lat="42.64382" lon="2.63083">
        <ele>263</ele>
        <time>2017-02-18T01:06:02Z</time>
      </trkpt>
      <trkpt lat="42.6431" lon="2.6313">
        <ele>281</ele>
        <time>2017-02-18T00:44:02Z</time>
      </trkpt>
      <trkpt lat="42.64253" lon="2.6323">
        <ele>285</ele>
        <time>2017-02-18T00:28:02Z</time>
      </trkpt>
      <trkpt lat="42.64214" lon="2.63298">
        <ele>289</ele>
        <time>2017-02-18T00:10:02Z</time>
      </trkpt>
      <trkpt lat="42.64122" lon="2.63337">
        <ele>308</ele>
        <time>2017-02-17T23:40:02Z</time>
      </trkpt>
      <trkpt lat="42.64006" lon="2.63478">
        <ele>316</ele>
        <time>2017-02-17T23:04:02Z</time>
      </trkpt>
      <trkpt lat="42.63951" lon="2.63701">
        <ele>321</ele>
        <time>2017-02-17T22:06:02Z</time>
      </trkpt>
      <trkpt lat="42.63937" lon="2.63688">
        <ele>326</ele>
        <time>2017-02-17T21:44:02Z</time>
      </trkpt>
      <trkpt lat="42.63956" lon="2.63444">
        <ele>334</ele>
        <time>2017-02-17T21:22:02Z</time>
      </trkpt>
      <trkpt lat="42.63949" lon="2.63369">
        <ele>345</ele>
        <time>2017-02-17T21:12:02Z</time>
      </trkpt>
      <trkpt lat="42.63955" lon="2.63357">
        <ele>345</ele>
        <time>2017-02-17T21:08:02Z</time>
      </trkpt>
      <trkpt lat="42.64011" lon="2.63309">
        <ele>337</ele>
        <time>2017-02-17T20:56:02Z</time>
      </trkpt>
      <trkpt lat="42.63991" lon="2.63232">
        <ele>343</ele>
        <time>2017-02-17T20:34:02Z</time>
      </trkpt>
      <trkpt lat="42.63739" lon="2.63356">
        <ele>375</ele>
        <time>2017-02-17T19:46:02Z</time>
      </trkpt>
      <trkpt lat="42.63722" lon="2.63355">
        <ele>376</ele>
        <time>2017-02-17T19:42:02Z</time>
      </trkpt>
      <trkpt lat="42.63654" lon="2.63265">
        <ele>370</ele>
        <time>2017-02-17T19:16:02Z</time>
      </trkpt>
      <trkpt lat="42.6355" lon="2.6333">
        <ele>383</ele>
        <time>2017-02-17T18:40:02Z</time>
      </trkpt>
      <trkpt lat="42.63426" lon="2.63276">
        <ele>393</ele>
        <time>2017-02-17T18:06:02Z</time>
      </trkpt>
      <trkpt lat="42.63415" lon="2.63272">
        <ele>395</ele>
        <time>2017-02-17T18:02:02Z</time>
      </trkpt>
      <trkpt lat="42.6338" lon="2.63215">
        <ele>385</ele>
        <time>2017-02-17T17:24:02Z</time>
      </trkpt>
      <trkpt lat="42.6337" lon="2.63361">
        <ele>397</ele>
        <time>2017-02-17T16:54:02Z</time>
      </trkpt>
      <trkpt lat="42.63388" lon="2.63421">
        <ele>407</ele>
        <time>2017-02-17T16:40:02Z</time>
      </trkpt>
      <trkpt lat="42.63383" lon="2.63491">
        <ele>412</ele>
        <time>2017-02-17T16:30:02Z</time>
      </trkpt>
      <trkpt lat="42.63387" lon="2.63557">
        <ele>421</ele>
        <time>2017-02-17T16:16:02Z</time>
      </trkpt>
      <trkpt lat="42.63319" lon="2.63644">
        <ele>430</ele>
        <time>2017-02-17T15:46:02Z</time>
      </trkpt>
      <trkpt lat="42.63249" lon="2.63613">
        <ele>426</ele>
        <time>2017-02-17T15:24:02Z</time>
      </trkpt>
      <trkpt lat="42.63184" lon="2.63691">
        <ele>431</ele>
        <time>2017-02-17T15:08:02Z</time>
      </trkpt>
      <trkpt lat="42.63119" lon="2.63711">
        <ele>424</ele>
        <time>2017-02-17T15:00:02Z</time>
      </trkpt>
      <trkpt lat="42.63039" lon="2.63791">
        <ele>432</ele>
        <time>2017-02-17T14:30:02Z</time>
      </trkpt>
      <trkpt lat="42.63034" lon="2.63792">
        <ele>432</ele>
        <time>2017-02-17T14:28:02Z</time>
      </trkpt>
      <trkpt lat="42.6298" lon="2.63755">
        <ele>425</ele>
        <time>2017-02-17T14:06:02Z</time>
      </trkpt>
      <trkpt lat="42.62899" lon="2.63794">
        <ele>430</ele>
        <time>2017-02-17T14:00:02Z</time>
      </trkpt>
      <trkpt lat="42.62838" lon="2.63793">
        <ele>431</ele>
        <time>2017-02-17T13:44:02Z</time>
      </trkpt>
      <trkpt lat="42.62766" lon="2.63739">
        <ele>432</ele>
        <time>2017-02-17T13:24:02Z</time>
      </trkpt>
      <trkpt lat="42.62717" lon="2.63815">
        <ele>441</ele>
        <time>2017-02-17T13:08:02Z</time>
      </trkpt>
      <trkpt lat="42.62644" lon="2.63845">
        <ele>449</ele>
        <time>2017-02-17T12:54:02Z</time>
      </trkpt>
      <trkpt lat="42.62485" lon="2.64018">
        <ele>460</ele>
        <time>2017-02-17T12:34:02Z</time>
      </trkpt>
      <trkpt lat="42.62428" lon="2.641">
        <ele>458</ele>
        <time>2017-02-17T12:22:02Z</time>
      </trkpt>
      <trkpt lat="42.6235" lon="2.64141">
        <ele>456</ele>
        <time>2017-02-17T12:00:02Z</time>
      </trkpt>
      <trkpt lat="42.623" lon="2.64009">
        <ele>480</ele>
        <time>2017-02-17T11:34:02Z</time>
      </trkpt>
      <trkpt lat="42.62222" lon="2.64124">
        <ele>470</ele>
        <time>2017-02-17T11:12:02Z</time>
      </trkpt>
      <trkpt lat="42.62169" lon="2.6415">
        <ele>476</ele>
        <time>2017-02-17T10:54:02Z</time>
      </trkpt>
      <trkpt lat="42.62142" lon="2.64202">
        <ele>466</ele>
        <time>2017-02-17T10:44:02Z</time>
      </trkpt>
      <trkpt lat="42.62121" lon="2.64202">
        <ele>468</ele>
        <time>2017-02-17T10:34:02Z</time>
      </trkpt>
      <trkpt lat="42.62165" lon="2.6409">
        <ele>489</ele>
        <time>2017-02-17T10:16:02Z</time>
      </trkpt>
      <trkpt lat="42.62248" lon="2.63948">
        <ele>498</ele>
        <time>2017-02-17T10:02:02Z</time>
      </trkpt>
      <trkpt lat="42.6231" lon="2.63835">
        <ele>508</ele>
        <time>2017-02-17T09:42:02Z</time>
      </trkpt>
      <trkpt lat="42.62351" lon="2.63786">
        <ele>510</ele>
        <time>2017-02-17T09:28:02Z</time>
      </trkpt>
      <trkpt lat="42.62344" lon="2.63756">
        <ele>513</ele>
        <time>2017-02-17T09:10:02Z</time>
      </trkpt>
      <trkpt lat="42.62243" lon="2.63857">
        <ele>513</ele>
        <time>2017-02-17T08:42:02Z</time>
      </trkpt>
      <trkpt lat="42.62166" lon="2.63924">
        <ele>524</ele>
        <time>2017-02-17T08:32:02Z</time>
      </trkpt>
      <trkpt lat="42.62114" lon="2.6397">
        <ele>519</ele>
        <time>2017-02-17T08:26:02Z</time>
      </trkpt>
      <trkpt lat="42.62071" lon="2.63919">
        <ele>531</ele>
        <time>2017-02-17T08:12:02Z</time>
      </trkpt>
      <trkpt lat="42.61898" lon="2.6391">
        <ele>538</ele>
        <time>2017-02-17T07:48:02Z</time>
      </trkpt>
      <trkpt lat="42.61682" lon="2.63997">
        <ele>544</ele>
        <time>2017-02-17T07:32:02Z</time>
      </trkpt>
      <trkpt lat="42.61644" lon="2.64085">
        <ele>545</ele>
        <time>2017-02-17T07:12:02Z</time>
      </trkpt>
      <trkpt lat="42.61535" lon="2.64226">
        <ele>555</ele>
        <time>2017-02-17T06:50:02Z</time>
      </trkpt>
      <trkpt lat="42.61352" lon="2.6425">
        <ele>574</ele>
        <time>2017-02-17T06:14:02Z</time>
      </trkpt>
      <trkpt lat="42.61121" lon="2.64472">
        <ele>581</ele>
        <time>2017-02-17T05:52:02Z</time>
      </trkpt>
      <trkpt lat="42.61006" lon="2.64465">
        <ele>590</ele>
        <time>2017-02-17T05:28:02Z</time>
      </trkpt>
      <trkpt lat="42.6072" lon="2.64806">
        <ele>613</ele>
        <time>2017-02-17T04:34:02Z</time>
      </trkpt>
      <trkpt lat="42.60748" lon="2.64919">
        <ele>607</ele>
        <time>2017-02-17T04:22:02Z</time>
      </trkpt>
      <trkpt lat="42.60733" lon="2.64958">
        <ele>604</ele>
        <time>2017-02-17T04:12:02Z</time>
      </trkpt>
      <trkpt lat="42.60656" lon="2.65021">
        <ele>599</ele>
        <time>2017-02-17T04:04:02Z</time>
      </trkpt>
      <trkpt lat="42.60625" lon="2.65013">
        <ele>603</ele>
        <time>2017-02-17T03:54:02Z</time>
      </trkpt>
      <trkpt lat="42.60486" lon="2.65076">
        <ele>604</ele>
        <time>2017-02-17T03:14:02Z</time>
      </trkpt>
      <trkpt lat="42.6049" lon="2.65298">
        <ele>582</ele>
        <time>2017-02-17T02:38:02Z</time>
      </trkpt>
      <trkpt lat="42.60457" lon="2.65338">
        <ele>582</ele>
        <time>2017-02-17T02:34:02Z</time>
      </trkpt>
      <trkpt lat="42.60418" lon="2.65381">
        <ele>575</ele>
        <time>2017-02-17T02:32:02Z</time>
      </trkpt>
      <trkpt lat="42.60378" lon="2.65406">
        <ele>570</ele>
        <time>2017-02-17T02:24:02Z</time>
      </trkpt>
      <trkpt lat="42.60347" lon="2.65378">
        <ele>582</ele>
        <time>2017-02-17T02:18:02Z</time>
      </trkpt>
      <trkpt lat="42.60292" lon="2.65373">
        <ele>593</ele>
        <time>2017-02-17T02:08:02Z</time>
      </trkpt>
      <trkpt lat="42.6028" lon="2.65541">
        <ele>569</ele>
        <time>2017-02-17T01:46:02Z</time>
      </trkpt>
      <trkpt lat="42.60238" lon="2.65634">
        <ele>571</ele>
        <time>2017-02-17T01:36:02Z</time>
      </trkpt>
      <trkpt lat="42.60283" lon="2.65781">
        <ele>558</ele>
        <time>2017-02-17T01:14:02Z</time>
      </trkpt>
      <trkpt lat="42.60325" lon="2.65796">
        <ele>561</ele>
        <time>2017-02-17T01:02:02Z</time>
      </trkpt>
      <trkpt lat="42.6033" lon="2.65822">
        <ele>557</ele>
        <time>2017-02-17T00:52:02Z</time>
      </trkpt>
      <trkpt lat="42.60247" lon="2.65775">
        <ele>555</ele>
        <time>2017-02-17T00:26:02Z</time>
      </trkpt>
      <trkpt lat="42.60188" lon="2.65768">
        <ele>554</ele>
        <time>2017-02-17T00:14:02Z</time>
      </trkpt>
      <trkpt lat="42.60086" lon="2.65858">
        <ele>540</ele>
        <time>2017-02-17T00:06:02Z</time>
      </trkpt>
      <trkpt lat="42.60019" lon="2.65913">
        <ele>530</ele>
        <time>2017-02-16T23:52:02Z</time>
      </trkpt>
      <trkpt lat="42.59982" lon="2.65896">
        <ele>529</ele>
        <time>2017-02-16T23:46:02Z</time>
      </trkpt>
      <trkpt lat="42.59952" lon="2.65824">
        <ele>533</ele>
        <time>2017-02-16T23:34:02Z</time>
      </trkpt>
      <trkpt lat="42.59929" lon="2.6584">
        <ele>527</ele>
        <time>2017-02-16T23:20:02Z</time>
      </trkpt>
      <trkpt lat="42.59942" lon="2.65877">
        <ele>524</ele>
        <time>2017-02-16T23:16:02Z</time>
      </trkpt>
      <trkpt lat="42.59971" lon="2.66023">
        <ele>510</ele>
        <time>2017-02-16T22:52:02Z</time>
      </trkpt>
      <trkpt lat="42.59924" lon="2.66081">
        <ele>506</ele>
        <time>2017-02-16T22:40:02Z</time>
      </trkpt>
      <trkpt lat="42.59915" lon="2.66125">
        <ele>502</ele>
        <time>2017-02-16T21:58:02Z</time>
      </trkpt>
      <trkpt lat="42.59998" lon="2.66057">
        <ele>507</ele>
        <time>2017-02-16T21:30:02Z</time>
      </trkpt>
      <trkpt lat="42.60007" lon="2.66077">
        <ele>503</ele>
        <time>2017-02-16T21:10:02Z</time>
      </trkpt>
      <trkpt lat="42.59912" lon="2.66196">
        <ele>493</ele>
        <time>2017-02-16T20:52:02Z</time>
      </trkpt>
      <trkpt lat="42.59864" lon="2.66237">
        <ele>485</ele>
        <time>2017-02-16T20:38:02Z</time>
      </trkpt>
      <trkpt lat="42.59806" lon="2.66228">
        <ele>478</ele>
        <time>2017-02-16T20:12:02Z</time>
      </trkpt>
      <trkpt lat="42.59821" lon="2.6617">
        <ele>485</ele>
        <time>2017-02-16T19:56:02Z</time>
      </trkpt>
      <trkpt lat="42.59821" lon="2.66164">
        <ele>485</ele>
        <time>2017-02-16T19:54:02Z</time>
      </trkpt>
      <trkpt lat="42.59811" lon="2.66094">
        <ele>478</ele>
        <time>2017-02-16T19:42:02Z</time>
      </trkpt>
      <trkpt lat="42.59857" lon="2.66007">
        <ele>484</ele>
        <time>2017-02-16T19:28:02Z</time>
      </trkpt>
      <trkpt lat="42.5986" lon="2.65982">
        <ele>488</ele>
        <time>2017-02-16T19:14:02Z</time>
      </trkpt>
      <trkpt lat="42.59759" lon="2.65932">
        <ele>466</ele>
        <time>2017-02-16T19:00:02Z</time>
      </trkpt>
      <trkpt lat="42.59736" lon="2.65885">
        <ele>459</ele>
        <time>2017-02-16T18:52:02Z</time>
      </trkpt>
      <trkpt lat="42.5978" lon="2.6563">
        <ele>472</ele>
        <time>2017-02-16T18:06:02Z</time>
      </trkpt>
      <trkpt lat="42.59714" lon="2.6563">
        <ele>468</ele>
        <time>2017-02-16T17:44:02Z</time>
      </trkpt>
      <trkpt lat="42.5964" lon="2.65711">
        <ele>451</ele>
        <time>2017-02-16T17:28:02Z</time>
      </trkpt>
      <trkpt lat="42.59558" lon="2.65686">
        <ele>472</ele>
        <time>2017-02-16T17:10:02Z</time>
      </trkpt>
      <trkpt lat="42.59546" lon="2.65758">
        <ele>457</ele>
        <time>2017-02-16T16:50:02Z</time>
      </trkpt>
      <trkpt lat="42.595" lon="2.65787">
        <ele>470</ele>
        <time>2017-02-16T16:36:02Z</time>
      </trkpt>
      <trkpt lat="42.59482" lon="2.659">
        <ele>458</ele>
        <time>2017-02-16T16:14:02Z</time>
      </trkpt>
      <trkpt lat="42.59451" lon="2.65981">
        <ele>450</ele>
        <time>2017-02-16T15:48:02Z</time>
      </trkpt>
      <trkpt lat="42.59376" lon="2.65959">
        <ele>474</ele>
        <time>2017-02-16T15:32:02Z</time>
      </trkpt>
      <trkpt lat="42.59351" lon="2.66162">
        <ele>461</ele>
        <time>2017-02-16T14:54:02Z</time>
      </trkpt>
      <trkpt lat="42.59268" lon="2.66218">
        <ele>457</ele>
        <time>2017-02-16T14:34:02Z</time>
      </trkpt>
      <trkpt lat="42.59226" lon="2.66199">
        <ele>466</ele>
        <time>2017-02-16T14:20:02Z</time>
      </trkpt>
      <trkpt lat="42.59142" lon="2.66199">
        <ele>476</ele>
        <time>2017-02-16T13:54:02Z</time>
      </trkpt>
      <trkpt lat="42.59124" lon="2.6626">
        <ele>464</ele>
        <time>2017-02-16T13:42:02Z</time>
      </trkpt>
      <trkpt lat="42.59034" lon="2.66341">
        <ele>470</ele>
        <time>2017-02-16T13:12:02Z</time>
      </trkpt>
      <trkpt lat="42.59017" lon="2.66407">
        <ele>471</ele>
        <time>2017-02-16T12:58:02Z</time>
      </trkpt>
      <trkpt lat="42.59022" lon="2.66423">
        <ele>470</ele>
        <time>2017-02-16T12:52:02Z</time>
      </trkpt>
      <trkpt lat="42.59127" lon="2.66494">
        <ele>451</ele>
        <time>2017-02-16T12:28:02Z</time>
      </trkpt>
      <trkpt lat="42.59139" lon="2.66584">
        <ele>452</ele>
        <time>2017-02-16T12:06:02Z</time>
      </trkpt>
      <trkpt lat="42.59063" lon="2.66621">
        <ele>456</ele>
        <time>2017-02-16T11:46:02Z</time>
      </trkpt>
      <trkpt lat="42.59019" lon="2.66798">
        <ele>442</ele>
        <time>2017-02-16T11:28:02Z</time>
      </trkpt>
      <trkpt lat="42.58946" lon="2.66842">
        <ele>440</ele>
        <time>2017-02-16T11:12:02Z</time>
      </trkpt>
      <trkpt lat="42.58893" lon="2.6689">
        <ele>428</ele>
        <time>2017-02-16T10:58:02Z</time>
      </trkpt>
      <trkpt lat="42.58831" lon="2.66881">
        <ele>431</ele>
        <time>2017-02-16T10:40:02Z</time>
      </trkpt>
      <trkpt lat="42.58775" lon="2.66814">
        <ele>442</ele>
        <time>2017-02-16T10:22:02Z</time>
      </trkpt>
      <trkpt lat="42.58752" lon="2.66886">
        <ele>435</ele>
        <time>2017-02-16T10:08:02Z</time>
      </trkpt>
      <trkpt lat="42.58773" lon="2.67049">
        <ele>420</ele>
        <time>2017-02-16T09:54:02Z</time>
      </trkpt>
      <trkpt lat="42.58763" lon="2.67156">
        <ele>413</ele>
        <time>2017-02-16T09:26:02Z</time>
      </trkpt>
      <trkpt lat="42.58672" lon="2.67077">
        <ele>429</ele>
        <time>2017-02-16T09:02:02Z</time>
      </trkpt>
      <trkpt lat="42.58616" lon="2.67074">
        <ele>436</ele>
        <time>2017-02-16T08:48:02Z</time>
      </trkpt>
      <trkpt lat="42.58673" lon="2.67242">
        <ele>420</ele>
        <time>2017-02-16T08:26:02Z</time>
      </trkpt>
      <trkpt lat="42.58684" lon="2.67456">
        <ele>419</ele>
        <time>2017-02-16T07:58:02Z</time>
      </trkpt>
      <trkpt lat="42.58666" lon="2.67563">
        <ele>418</ele>
        <time>2017-02-16T07:46:02Z</time>
      </trkpt>
      <trkpt lat="42.58605" lon="2.67674">
        <ele>417</ele>
        <time>2017-02-16T07:36:02Z</time>
      </trkpt>
      <trkpt lat="42.58525" lon="2.67788">
        <ele>413</ele>
        <time>2017-02-16T07:22:02Z</time>
      </trkpt>
      <trkpt lat="42.58466" lon="2.67797">
        <ele>412</ele>
        <time>2017-02-16T07:04:02Z</time>
      </trkpt>
      <trkpt lat="42.58381" lon="2.67709">
        <ele>426</ele>
        <time>2017-02-16T06:38:02Z</time>
      </trkpt>
      <trkpt lat="42.58372" lon="2.6771">
        <ele>426</ele>
        <time>2017-02-16T06:34:02Z</time>
      </trkpt>
      <trkpt lat="42.5833" lon="2.67794">
        <ele>411</ele>
        <time>2017-02-16T06:14:02Z</time>
      </trkpt>
      <trkpt lat="42.58276" lon="2.67789">
        <ele>419</ele>
        <time>2017-02-16T05:40:02Z</time>
      </trkpt>
      <trkpt lat="42.5825" lon="2.67892">
        <ele>406</ele>
        <time>2017-02-16T05:10:02Z</time>
      </trkpt>
      <trkpt lat="42.5812" lon="2.67828">
        <ele>420</ele>
        <time>2017-02-16T04:42:02Z</time>
      </trkpt>
      <trkpt lat="42.58118" lon="2.67834">
        <ele>420</ele>
        <time>2017-02-16T04:40:02Z</time>
      </trkpt>
      <trkpt lat="42.5814" lon="2.67936">
        <ele>404</ele>
        <time>2017-02-16T04:26:02Z</time>
      </trkpt>
      <trkpt lat="42.58114" lon="2.68052">
        <ele>402</ele>
        <time>2017-02-16T04:08:02Z</time>
      </trkpt>
      <trkpt lat="42.58131" lon="2.68192">
        <ele>385</ele>
        <time>2017-02-16T03:52:02Z</time>
      </trkpt>
      <trkpt lat="42.58095" lon="2.68284">
        <ele>391</ele>
        <time>2017-02-16T03:32:02Z</time>
      </trkpt>
      <trkpt lat="42.58094" lon="2.68351">
        <ele>386</ele>
        <time>2017-02-16T03:28:02Z</time>
      </trkpt>
      <trkpt lat="42.58044" lon="2.68493">
        <ele>377</ele>
        <time>2017-02-16T03:10:02Z</time>
      </trkpt>
      <trkpt lat="42.58029" lon="2.68715">
        <ele>359</ele>
        <time>2017-02-16T02:38:02Z</time>
      </trkpt>
      <trkpt lat="42.57996" lon="2.68803">
        <ele>362</ele>
        <time>2017-02-16T02:28:02Z</time>
      </trkpt>
      <trkpt lat="42.57791" lon="2.69313">
        <ele>341</ele>
        <time>2017-02-16T01:30:02Z</time>
      </trkpt>
      <trkpt lat="42.57846" lon="2.69408">
        <ele>338</ele>
        <time>2017-02-16T01:14:02Z</time>
      </trkpt>
      <trkpt lat="42.57918" lon="2.69499">
        <ele>333</ele>
        <time>2017-02-16T00:50:02Z</time>
      </trkpt>
      <trkpt lat="42.57956" lon="2.69505">
        <ele>326</ele>
        <time>2017-02-16T00:30:02Z</time>
      </trkpt>
      <trkpt lat="42.57969" lon="2.69641">
        <ele>318</ele>
        <time>2017-02-16T00:16:02Z</time>
      </trkpt>
      <trkpt lat="42.57957" lon="2.697">
        <ele>316</ele>
        <time>2017-02-16T00:04:02Z</time>
      </trkpt>
      <trkpt lat="42.57912" lon="2.6972">
        <ele>318</ele>
        <time>2017-02-15T23:52:02Z</time>
      </trkpt>
      <trkpt lat="42.57893" lon="2.6973">
        <ele>317</ele>
        <time>2017-02-15T23:46:02Z</time>
      </trkpt>
      <trkpt lat="42.57833" lon="2.69994">
        <ele>300</ele>
        <time>2017-02-15T23:12:02Z</time>
      </trkpt>
      <trkpt lat="42.57821" lon="2.70119">
        <ele>295</ele>
        <time>2017-02-15T23:00:02Z</time>
      </trkpt>
      <trkpt lat="42.57881" lon="2.70353">
        <ele>284</ele>
        <time>2017-02-15T22:34:02Z</time>
      </trkpt>
      <trkpt lat="42.57897" lon="2.70452">
        <ele>278</ele>
        <time>2017-02-15T22:22:02Z</time>
      </trkpt>
      <trkpt lat="42.57866" lon="2.70564">
        <ele>279</ele>
        <time>2017-02-15T21:54:02Z</time>
      </trkpt>
      <trkpt lat="42.57924" lon="2.70599">
        <ele>270</ele>
        <time>2017-02-15T21:34:02Z</time>
      </trkpt>
      <trkpt lat="42.57942" lon="2.70642">
        <ele>270</ele>
        <time>2017-02-15T21:26:02Z</time>
      </trkpt>
      <trkpt lat="42.57918" lon="2.70897">
        <ele>261</ele>
        <time>2017-02-15T21:06:02Z</time>
      </trkpt>
      <trkpt lat="42.57844" lon="2.70969">
        <ele>252</ele>
        <time>2017-02-15T20:46:02Z</time>
      </trkpt>
      <trkpt lat="42.57772" lon="2.70967">
        <ele>247</ele>
        <time>2017-02-15T20:38:02Z</time>
      </trkpt>
      <trkpt lat="42.57685" lon="2.70897">
        <ele>243</ele>
        <time>2017-02-15T20:18:02Z</time>
      </trkpt>
      <trkpt lat="42.57633" lon="2.70905">
        <ele>242</ele>
        <time>2017-02-15T20:02:02Z</time>
      </trkpt>
      <trkpt lat="42.57632" lon="2.71247">
        <ele>246</ele>
        <time>2017-02-15T19:00:02Z</time>
      </trkpt>
      <trkpt lat="42.57613" lon="2.71414">
        <ele>241</ele>
        <time>2017-02-15T18:40:02Z</time>
      </trkpt>
      <trkpt lat="42.57579" lon="2.7158">
        <ele>229</ele>
        <time>2017-02-15T18:10:02Z</time>
      </trkpt>
      <trkpt lat="42.57554" lon="2.71633">
        <ele>232</ele>
        <time>2017-02-15T18:06:02Z</time>
      </trkpt>
      <trkpt lat="42.57433" lon="2.71915">
        <ele>219</ele>
        <time>2017-02-15T17:26:02Z</time>
      </trkpt>
      <trkpt lat="42.57444" lon="2.72126">
        <ele>215</ele>
        <time>2017-02-15T17:04:02Z</time>
      </trkpt>
      <trkpt lat="42.57483" lon="2.7218">
        <ele>215</ele>
        <time>2017-02-15T16:52:02Z</time>
      </trkpt>
      <trkpt lat="42.5751" lon="2.72317">
        <ele>207</ele>
        <time>2017-02-15T16:28:02Z</time>
      </trkpt>
      <trkpt lat="42.57532" lon="2.72358">
        <ele>207</ele>
        <time>2017-02-15T16:22:02Z</time>
      </trkpt>
      <trkpt lat="42.57575" lon="2.72384">
        <ele>204</ele>
        <time>2017-02-15T16:14:02Z</time>
      </trkpt>
      <trkpt lat="42.57608" lon="2.72442">
        <ele>204</ele>
        <time>2017-02-15T16:04:02Z</time>
      </trkpt>
      <trkpt lat="42.57617" lon="2.72522">
        <ele>202</ele>
        <time>2017-02-15T15:48:02Z</time>
      </trkpt>
      <trkpt lat="42.57611" lon="2.72562">
        <ele>201</ele>
        <time>2017-02-15T15:38:02Z</time>
      </trkpt>
      <trkpt lat="42.57664" lon="2.7261">
        <ele>201</ele>
        <time>2017-02-15T15:32:02Z</time>
      </trkpt>
      <trkpt lat="42.57703" lon="2.72638">
        <ele>203</ele>
        <time>2017-02-15T15:26:02Z</time>
      </trkpt>
      <trkpt lat="42.57863" lon="2.727">
        <ele>199</ele>
        <time>2017-02-15T15:02:02Z</time>
      </trkpt>
      <trkpt lat="42.57891" lon="2.72758">
        <ele>198</ele>
        <time>2017-02-15T14:54:02Z</time>
      </trkpt>
      <trkpt lat="42.57852" lon="2.73008">
        <ele>199</ele>
        <time>2017-02-15T14:26:02Z</time>
      </trkpt>
      <trkpt lat="42.57843" lon="2.7317">
        <ele>189</ele>
        <time>2017-02-15T14:00:02Z</time>
      </trkpt>
      <trkpt lat="42.57955" lon="2.7347">
        <ele>187</ele>
        <time>2017-02-15T13:20:02Z</time>
      </trkpt>
      <trkpt lat="42.5802" lon="2.73576">
        <ele>185</ele>
        <time>2017-02-15T13:16:02Z</time>
      </trkpt>
      <trkpt lat="42.58068" lon="2.73614">
        <ele>178</ele>
        <time>2017-02-15T13:10:02Z</time>
      </trkpt>
      <trkpt lat="42.5812" lon="2.73662">
        <ele>179</ele>
        <time>2017-02-15T12:46:02Z</time>
      </trkpt>
      <trkpt lat="42.58143" lon="2.73641">
        <ele>178</ele>
        <time>2017-02-15T12:36:02Z</time>
      </trkpt>
      <trkpt lat="42.58182" lon="2.73632">
        <ele>177</ele>
        <time>2017-02-15T12:20:02Z</time>
      </trkpt>
      <trkpt lat="42.58246" lon="2.73714">
        <ele>181</ele>
        <time>2017-02-15T11:58:02Z</time>
      </trkpt>
      <trkpt lat="42.58198" lon="2.73819">
        <ele>192</ele>
        <time>2017-02-15T11:24:02Z</time>
      </trkpt>
      <trkpt lat="42.58186" lon="2.73917">
        <ele>194</ele>
        <time>2017-02-15T11:16:02Z</time>
      </trkpt>
      <trkpt lat="42.58076" lon="2.74388">
        <ele>181</ele>
        <time>2017-02-15T10:34:02Z</time>
      </trkpt>
      <trkpt lat="42.58032" lon="2.74796">
        <ele>175</ele>
        <time>2017-02-15T10:06:02Z</time>
      </trkpt>
      <trkpt lat="42.58091" lon="2.75362">
        <ele>162</ele>
        <time>2017-02-15T09:38:02Z</time>
      </trkpt>
      <trkpt lat="42.58171" lon="2.75767">
        <ele>158</ele>
        <time>2017-02-15T09:10:02Z</time>
      </trkpt>
      <trkpt lat="42.58249" lon="2.76179">
        <ele>143</ele>
        <time>2017-02-15T08:32:02Z</time>
      </trkpt>
      <trkpt lat="42.58265" lon="2.76458">
        <ele>139</ele>
        <time>2017-02-15T08:22:02Z</time>
      </trkpt>
      <trkpt lat="42.58277" lon="2.76653">
        <ele>140</ele>
        <time>2017-02-15T08:10:02Z</time>
      </trkpt>
      <trkpt lat="42.58303" lon="2.76896">
        <ele>139</ele>
        <time>2017-02-15T07:48:02Z</time>
      </trkpt>
      <trkpt lat="42.5826" lon="2.7704">
        <ele>135</ele>
        <time>2017-02-15T07:24:02Z</time>
      </trkpt>
      <trkpt lat="42.58236" lon="2.77338">
        <ele>128</ele>
        <time>2017-02-15T07:06:02Z</time>
      </trkpt>
      <trkpt lat="42.5822" lon="2.77476">
        <ele>127</ele>
        <time>2017-02-15T06:46:02Z</time>
      </trkpt>
      <trkpt lat="42.58103" lon="2.77743">
        <ele>142</ele>
        <time>2017-02-15T06:12:02Z</time>
      </trkpt>
      <trkpt lat="42.58146" lon="2.77833">
        <ele>145</ele>
        <time>2017-02-15T05:48:02Z</time>
      </trkpt>
      <trkpt lat="42.58177" lon="2.77938">
        <ele>139</ele>
        <time>2017-02-15T05:36:02Z</time>
      </trkpt>
      <trkpt lat="42.5822" lon="2.77966">
        <ele>137</ele>
        <time>2017-02-15T05:22:02Z</time>
      </trkpt>
      <trkpt lat="42.58267" lon="2.78053">
        <ele>136</ele>
        <time>2017-02-15T05:08:02Z</time>
      </trkpt>
      <trkpt lat="42.58296" lon="2.78093">
        <ele>134</ele>
        <time>2017-02-15T05:02:02Z</time>
      </trkpt>
      <trkpt lat="42.58364" lon="2.78131">
        <ele>128</ele>
        <time>2017-02-15T04:50:02Z</time>
      </trkpt>
      <trkpt lat="42.58418" lon="2.78217">
        <ele>125</ele>
        <time>2017-02-15T04:34:02Z</time>
      </trkpt>
      <trkpt lat="42.58392" lon="2.78284">
        <ele>125</ele>
        <time>2017-02-15T04:26:02Z</time>
      </trkpt>
      <trkpt lat="42.58382" lon="2.78487">
        <ele>119</ele>
        <time>2017-02-15T03:46:02Z</time>
      </trkpt>
      <trkpt lat="42.58323" lon="2.78609">
        <ele>121</ele>
        <time>2017-02-15T03:28:02Z</time>
      </trkpt>
      <trkpt lat="42.58303" lon="2.78651">
        <ele>120</ele>
        <time>2017-02-15T03:18:02Z</time>
      </trkpt>
      <trkpt lat="42.58258" lon="2.7866">
        <ele>123</ele>
        <time>2017-02-15T03:06:02Z</time>
      </trkpt>
      <trkpt lat="42.58224" lon="2.78684">
        <ele>123</ele>
        <time>2017-02-15T02:58:02Z</time>
      </trkpt>
      <trkpt lat="42.5822" lon="2.78745">
        <ele>122</ele>
        <time>2017-02-15T02:52:02Z</time>
      </trkpt>
      <trkpt lat="42.58252" lon="2.78837">
        <ele>124</ele>
        <time>2017-02-15T02:44:02Z</time>
      </trkpt>
      <trkpt lat="42.58285" lon="2.79242">
        <ele>114</ele>
        <time>2017-02-15T02:12:02Z</time>
      </trkpt>
      <trkpt lat="42.58338" lon="2.79407">
        <ele>111</ele>
        <time>2017-02-15T02:02:02Z</time>
      </trkpt>
      <trkpt lat="42.58358" lon="2.7952">
        <ele>111</ele>
        <time>2017-02-15T01:48:02Z</time>
      </trkpt>
      <trkpt lat="42.58397" lon="2.79885">
        <ele>107</ele>
        <time>2017-02-15T01:28:02Z</time>
      </trkpt>
      <trkpt lat="42.58403" lon="2.80127">
        <ele>105</ele>
        <time>2017-02-15T00:52:02Z</time>
      </trkpt>
      <trkpt lat="42.58484" lon="2.80323">
        <ele>104</ele>
        <time>2017-02-15T00:38:02Z</time>
      </trkpt>
      <trkpt lat="42.58562" lon="2.80671">
        <ele>100</ele>
        <time>2017-02-15T00:12:02Z</time>
      </trkpt>
      <trkpt lat="42.58583" lon="2.80909">
        <ele>100</ele>
        <time>2017-02-15T00:02:02Z</time>
      </trkpt>
      <trkpt lat="42.5862" lon="2.81478">
        <ele>99</ele>
        <time>2017-02-14T23:42:02Z</time>
      </trkpt>
      <trkpt lat="42.58598" lon="2.81855">
        <ele>101</ele>
        <time>2017-02-14T23:10:02Z</time>
      </trkpt>
      <trkpt lat="42.58587" lon="2.82002">
        <ele>99</ele>
        <time>2017-02-14T23:04:02Z</time>
      </trkpt>
      <trkpt lat="42.58576" lon="2.82149">
        <ele>94</ele>
        <time>2017-02-14T22:54:02Z</time>
      </trkpt>
      <trkpt lat="42.58527" lon="2.82231">
        <ele>92</ele>
        <time>2017-02-14T22:42:02Z</time>
      </trkpt>
      <trkpt lat="42.5854" lon="2.82394">
        <ele>92</ele>
        <time>2017-02-14T22:08:02Z</time>
      </trkpt>
      <trkpt lat="42.58684" lon="2.82603">
        <ele>90</ele>
        <time>2017-02-14T21:38:02Z</time>
      </trkpt>
      <trkpt lat="42.58707" lon="2.82949">
        <ele>87</ele>
        <time>2017-02-14T20:48:02Z</time>
      </trkpt>
      <trkpt lat="42.58879" lon="2.835">
        <ele>81</ele>
        <time>2017-02-14T20:06:02Z</time>
      </trkpt>
      <trkpt lat="42.59012" lon="2.83662">
        <ele>80</ele>
        <time>2017-02-14T19:48:02Z</time>
      </trkpt>
      <trkpt lat="42.58934" lon="2.83834">
        <ele>87</ele>
        <time>2017-02-14T19:18:02Z</time>
      </trkpt>
      <trkpt lat="42.58927" lon="2.83887">
        <ele>87</ele>
        <time>2017-02-14T19:00:02Z</time>
      </trkpt>
      <trkpt lat="42.58807" lon="2.83949">
        <ele>91</ele>
        <time>2017-02-14T18:48:02Z</time>
      </trkpt>
      <trkpt lat="42.58747" lon="2.83981">
        <ele>90</ele>
        <time>2017-02-14T18:38:02Z</time>
      </trkpt>
      <trkpt lat="42.58634" lon="2.84212">
        <ele>81</ele>
        <time>2017-02-14T18:12:02Z</time>
      </trkpt>
      <trkpt lat="42.5861" lon="2.84339">
        <ele>80</ele>
        <time>2017-02-14T17:58:02Z</time>
      </trkpt>
      <trkpt lat="42.58667" lon="2.84563">
        <ele>86</ele>
        <time>2017-02-14T17:44:02Z</time>
      </trkpt>
      <trkpt lat="42.58693" lon="2.84817">
        <ele>86</ele>
        <time>2017-02-14T17:08:02Z</time>
      </trkpt>
      <trkpt lat="42.5873" lon="2.8491">
        <ele>87</ele>
        <time>2017-02-14T16:50:02Z</time>
      </trkpt>
      <trkpt lat="42.58869" lon="2.84895">
        <ele>79</ele>
        <time>2017-02-14T16:16:02Z</time>
      </trkpt>
      <trkpt lat="42.59008" lon="2.84942">
        <ele>76</ele>
        <time>2017-02-14T15:44:02Z</time>
      </trkpt>
      <trkpt lat="42.59067" lon="2.85056">
        <ele>77</ele>
        <time>2017-02-14T15:08:02Z</time>
      </trkpt>
      <trkpt lat="42.58991" lon="2.8512">
        <ele>81</ele>
        <time>2017-02-14T14:48:02Z</time>
      </trkpt>
      <trkpt lat="42.58918" lon="2.85282">
        <ele>81</ele>
        <time>2017-02-14T13:32:02Z</time>
      </trkpt>
      <trkpt lat="42.58799" lon="2.85281">
        <ele>81</ele>
        <time>2017-02-14T13:04:02Z</time>
      </trkpt>
      <trkpt lat="42.58706" lon="2.85319">
        <ele>80</ele>
        <time>2017-02-14T12:38:02Z</time>
      </trkpt>
      <trkpt lat="42.58558" lon="2.85765">
        <ele>76</ele>
        <time>2017-02-14T11:50:02Z</time>
      </trkpt>
      <trkpt lat="42.58426" lon="2.85904">
        <ele>74</ele>
        <time>2017-02-14T11:20:02Z</time>
      </trkpt>
      <trkpt lat="42.58271" lon="2.86261">
        <ele>72</ele>
        <time>2017-02-14T10:48:02Z</time>
      </trkpt>
      <trkpt lat="42.58094" lon="2.86731">
        <ele>71</ele>
        <time>2017-02-14T10:04:02Z</time>
      </trkpt>
      <trkpt lat="42.58181" lon="2.8699">
        <ele>68</ele>
        <time>2017-02-14T09:12:02Z</time>
      </trkpt>
      <trkpt lat="42.58241" lon="2.87325">
        <ele>68</ele>
        <time>2017-02-14T07:58:02Z</time>
      </trkpt>
      <trkpt lat="42.58246" lon="2.87403">
        <ele>70</ele>
        <time>2017-02-14T07:46:02Z</time>
      </trkpt>
      <trkpt lat="42.58194" lon="2.87559">
        <ele>72</ele>
        <time>2017-02-14T07:42:02Z</time>
      </trkpt>
      <trkpt lat="42.58174" lon="2.87611">
        <ele>74</ele>
        <time>2017-02-14T07:36:02Z</time>
      </trkpt>
      <trkpt lat="42.57538" lon="2.882">
        <ele>71</ele>
        <time>2017-02-14T06:36:02Z</time>
      </trkpt>
      <trkpt lat="42.57396" lon="2.88268">
        <ele>65</ele>
        <time>2017-02-14T06:22:02Z</time>
      </trkpt>
      <trkpt lat="42.57098" lon="2.88635">
        <ele>62</ele>
        <time>2017-02-14T05:58:02Z</time>
      </trkpt>
      <trkpt lat="42.57013" lon="2.88807">
        <ele>62</ele>
        <time>2017-02-14T05:32:02Z</time>
      </trkpt>
      <trkpt lat="42.56911" lon="2.88966">
        <ele>58</ele>
        <time>2017-02-14T05:12:02Z</time>
      </trkpt>
      <trkpt lat="42.56884" lon="2.89016">
        <ele>58</ele>
        <time>2017-02-14T05:02:02Z</time>
      </trkpt>
      <trkpt lat="42.56751" lon="2.89182">
        <ele>53</ele>
        <time>2017-02-14T04:24:02Z</time>
      </trkpt>
      <trkpt lat="42.56733" lon="2.8926">
        <ele>53</ele>
        <time>2017-02-14T04:16:02Z</time>
      </trkpt>
      <trkpt lat="42.56719" lon="2.89797">
        <ele>45</ele>
        <time>2017-02-14T03:18:02Z</time>
      </trkpt>
      <trkpt lat="42.56633" lon="2.90196">
        <ele>43</ele>
        <time>2017-02-14T02:34:02Z</time>
      </trkpt>
      <trkpt lat="42.56582" lon="2.90096">
        <ele>45</ele>
        <time>2017-02-14T02:14:02Z</time>
      </trkpt>
      <trkpt lat="42.56545" lon="2.90024">
        <ele>44</ele>
        <time>2017-02-14T02:12:02Z</time>
      </trkpt>
      <trkpt lat="42.56507" lon="2.90021">
        <ele>43</ele>
        <time>2017-02-14T02:04:02Z</time>
      </trkpt>
      <trkpt lat="42.5634" lon="2.90163">
        <ele>44</ele>
        <time>2017-02-14T01:56:02Z</time>
      </trkpt>
      <trkpt lat="42.55874" lon="2.90558">
        <ele>40</ele>
        <time>2017-02-14T01:08:02Z</time>
      </trkpt>
      <trkpt lat="42.5583" lon="2.90623">
        <ele>43</ele>
        <time>2017-02-14T00:44:02Z</time>
      </trkpt>
      <trkpt lat="42.55757" lon="2.90969">
        <ele>43</ele>
        <time>2017-02-14T00:18:02Z</time>
      </trkpt>
      <trkpt lat="42.5546" lon="2.91328">
        <ele>42</ele>
        <time>2017-02-13T23:34:02Z</time>
      </trkpt>
      <trkpt lat="42.55032" lon="2.9169">
        <ele>43</ele>
        <time>2017-02-13T23:14:02Z</time>
      </trkpt>
      <trkpt lat="42.54962" lon="2.91741">
        <ele>43</ele>
        <time>2017-02-13T23:04:02Z</time>
      </trkpt>
      <trkpt lat="42.54875" lon="2.9186">
        <ele>43</ele>
        <time>2017-02-13T22:04:02Z</time>
      </trkpt>
      <trkpt lat="42.54346" lon="2.91974">
        <ele>55</ele>
        <time>2017-02-13T19:42:02Z</time>
      </trkpt>
      <trkpt lat="42.543" lon="2.92059">
        <ele>58</ele>
        <time>2017-02-13T19:30:02Z</time>
      </trkpt>
      <trkpt lat="42.54128" lon="2.92385">
        <ele>57</ele>
        <time>2017-02-13T18:54:02Z</time>
      </trkpt>
      <trkpt lat="42.54068" lon="2.92496">
        <ele>56</ele>
        <time>2017-02-13T18:08:02Z</time>
      </trkpt>
      <trkpt lat="42.54014" lon="2.92594">
        <ele>57</ele>
        <time>2017-02-13T17:38:02Z</time>
      </trkpt>
      <trkpt lat="42.53716" lon="2.92729">
        <ele>64</ele>
        <time>2017-02-13T17:06:02Z</time>
      </trkpt>
      <trkpt lat="42.53313" lon="2.92941">
        <ele>74</ele>
        <time>2017-02-13T16:54:02Z</time>
      </trkpt>
      <trkpt lat="42.52883" lon="2.93267">
        <ele>87</ele>
        <time>2017-02-13T16:40:02Z</time>
      </trkpt>
      <trkpt lat="42.52815" lon="2.9333">
        <ele>87</ele>
        <time>2017-02-13T16:18:02Z</time>
      </trkpt>
      <trkpt lat="42.52484" lon="2.93308">
        <ele>98</ele>
        <time>2017-02-13T15:24:02Z</time>
      </trkpt>
      <trkpt lat="42.52414" lon="2.93307">
        <ele>98</ele>
        <time>2017-02-13T15:14:02Z</time>
      </trkpt>
      <trkpt lat="42.52297" lon="2.93381">
        <ele>99</ele>
        <time>2017-02-13T14:52:02Z</time>
      </trkpt>
      <trkpt lat="42.52285" lon="2.93598">
        <ele>103</ele>
        <time>2017-02-13T14:20:02Z</time>
      </trkpt>
      <trkpt lat="42.52356" lon="2.93678">
        <ele>100</ele>
        <time>2017-02-13T14:14:02Z</time>
      </trkpt>
      <trkpt lat="42.5242" lon="2.93898">
        <ele>101</ele>
        <time>2017-02-13T13:48:02Z</time>
      </trkpt>
      <trkpt lat="42.52851" lon="2.94676">
        <ele>86</ele>
        <time>2017-02-13T12:44:02Z</time>
      </trkpt>
      <trkpt lat="42.53057" lon="2.95052">
        <ele>84</ele>
        <time>2017-02-13T12:06:02Z</time>
      </trkpt>
      <trkpt lat="42.53062" lon="2.95246">
        <ele>86</ele>
        <time>2017-02-13T11:42:02Z</time>
      </trkpt>
      <trkpt lat="42.53073" lon="2.95319">
        <ele>85</ele>
        <time>2017-02-13T11:32:02Z</time>
      </trkpt>
      <trkpt lat="42.53266" lon="2.95511">
        <ele>78</ele>
        <time>2017-02-13T09:56:02Z</time>
      </trkpt>
      <trkpt lat="42.53036" lon="2.95599">
        <ele>76</ele>
        <time>2017-02-13T08:26:02Z</time>
      </trkpt>
      <trkpt lat="42.53043" lon="2.9585">
        <ele>81</ele>
        <time>2017-02-13T07:50:02Z</time>
      </trkpt>
      <trkpt lat="42.53142" lon="2.96117">
        <ele>76</ele>
        <time>2017-02-13T07:14:02Z</time>
      </trkpt>
      <trkpt lat="42.53052" lon="2.9634">
        <ele>77</ele>
        <time>2017-02-13T06:46:02Z</time>
      </trkpt>
      <trkpt lat="42.53039" lon="2.96504">
        <ele>75</ele>
        <time>2017-02-13T06:30:02Z</time>
      </trkpt>
      <trkpt lat="42.53128" lon="2.96674">
        <ele>68</ele>
        <time>2017-02-13T06:14:02Z</time>
      </trkpt>
      <trkpt lat="42.53147" lon="2.96822">
        <ele>66</ele>
        <time>2017-02-13T06:04:02Z</time>
      </trkpt>
      <trkpt lat="42.53087" lon="2.97095">
        <ele>74</ele>
        <time>2017-02-13T05:30:02Z</time>
      </trkpt>
      <trkpt lat="42.53088" lon="2.97106">
        <ele>75</ele>
        <time>2017-02-13T05:28:02Z</time>
      </trkpt>
      <trkpt lat="42.53136" lon="2.97292">
        <ele>74</ele>
        <time>2017-02-13T05:16:02Z</time>
      </trkpt>
      <trkpt lat="42.53119" lon="2.97526">
        <ele>74</ele>
        <time>2017-02-13T05:10:02Z</time>
      </trkpt>
      <trkpt lat="42.53123" lon="2.97827">
        <ele>74</ele>
        <time>2017-02-13T04:46:02Z</time>
      </trkpt>
      <trkpt lat="42.53174" lon="2.98073">
        <ele>73</ele>
        <time>2017-02-13T04:26:02Z</time>
      </trkpt>
      <trkpt lat="42.53163" lon="2.98444">
        <ele>78</ele>
        <time>2017-02-13T04:06:02Z</time>
      </trkpt>
      <trkpt lat="42.53216" lon="2.98574">
        <ele>76</ele>
        <time>2017-02-13T03:56:02Z</time>
      </trkpt>
      <trkpt lat="42.53249" lon="2.9885">
        <ele>68</ele>
        <time>2017-02-13T03:24:02Z</time>
      </trkpt>
      <trkpt lat="42.53312" lon="2.9893">
        <ele>66</ele>
        <time>2017-02-13T03:14:02Z</time>
      </trkpt>
      <trkpt lat="42.53393" lon="2.99056">
        <ele>62</ele>
        <time>2017-02-13T02:54:02Z</time>
      </trkpt>
      <trkpt lat="42.53473" lon="2.99358">
        <ele>59</ele>
        <time>2017-02-13T02:00:02Z</time>
      </trkpt>
      <trkpt lat="42.5375" lon="2.99613">
        <ele>48</ele>
        <time>2017-02-13T01:12:02Z</time>
      </trkpt>
      <trkpt lat="42.53853" lon="2.99863">
        <ele>45</ele>
        <time>2017-02-13T00:38:02Z</time>
      </trkpt>
      <trkpt lat="42.53934" lon="2.99932">
        <ele>45</ele>
        <time>2017-02-13T00:24:02Z</time>
      </trkpt>
      <trkpt lat="42.54104" lon="3.00153">
        <ele>39</ele>
        <time>2017-02-12T23:42:02Z</time>
      </trkpt>
      <trkpt lat="42.54192" lon="3.00329">
        <ele>36</ele>
        <time>2017-02-12T23:16:02Z</time>
      </trkpt>
      <trkpt lat="42.54343" lon="3.00454">
        <ele>33</ele>
        <time>2017-02-12T22:44:02Z</time>
      </trkpt>
      <trkpt lat="42.54345" lon="3.00462">
        <ele>33</ele>
        <time>2017-02-12T22:40:02Z</time>
      </trkpt>
      <trkpt lat="42.54391" lon="3.00697">
        <ele>26</ele>
        <time>2017-02-12T22:04:02Z</time>
      </trkpt>
      <trkpt lat="42.54378" lon="3.00814">
        <ele>23</ele>
        <time>2017-02-12T21:36:02Z</time>
      </trkpt>
      <trkpt lat="42.54487" lon="3.01251">
        <ele>23</ele>
        <time>2017-02-12T19:54:02Z</time>
      </trkpt>
      <trkpt lat="42.54527" lon="3.01507">
        <ele>15</ele>
        <time>2017-02-12T19:24:02Z</time>
      </trkpt>
      <trkpt lat="42.54483" lon="3.01602">
        <ele>14</ele>
        <time>2017-02-12T19:02:02Z</time>
      </trkpt>
      <trkpt lat="42.5449" lon="3.01788">
        <ele>15</ele>
        <time>2017-02-12T18:44:02Z</time>
      </trkpt>
      <trkpt lat="42.54514" lon="3.01925">
        <ele>13</ele>
        <time>2017-02-12T18:30:02Z</time>
      </trkpt>
      <trkpt lat="42.54442" lon="3.02039">
        <ele>13</ele>
        <time>2017-02-12T18:26:02Z</time>
      </trkpt>
      <trkpt lat="42.54435" lon="3.02062">
        <ele>12</ele>
        <time>2017-02-12T18:22:02Z</time>
      </trkpt>
      <trkpt lat="42.54502" lon="3.02153">
        <ele>16</ele>
        <time>2017-02-12T17:56:02Z</time>
      </trkpt>
      <trkpt lat="42.54574" lon="3.02216">
        <ele>15</ele>
        <time>2017-02-12T17:42:02Z</time>
      </trkpt>
      <trkpt lat="42.54598" lon="3.02296">
        <ele>16</ele>
        <time>2017-02-12T17:30:02Z</time>
      </trkpt>
      <trkpt lat="42.54577" lon="3.02311">
        <ele>16</ele>
        <time>2017-02-12T17:28:02Z</time>
      </trkpt>
      <trkpt lat="42.54556" lon="3.02354">
        <ele>14</ele>
        <time>2017-02-12T17:10:02Z</time>
      </trkpt>
      <trkpt lat="42.54528" lon="3.02373">
        <ele>13</ele>
        <time>2017-02-12T17:04:02Z</time>
      </trkpt>
      <trkpt lat="42.54566" lon="3.02483">
        <ele>11</ele>
        <time>2017-02-12T16:52:02Z</time>
      </trkpt>
      <trkpt lat="42.54426" lon="3.02577">
        <ele>12</ele>
        <time>2017-02-12T16:40:02Z</time>
      </trkpt>
      <trkpt lat="42.54906" lon="3.03913">
        <ele>13</ele>
        <time>2017-02-12T16:20:02Z</time>
      </trkpt>
      <trkpt lat="42.54989" lon="3.04128">
        <ele>11</ele>
        <time>2017-02-12T15:42:02Z</time>
      </trkpt>
      <trkpt lat="42.55084" lon="3.04667">
        <ele>12</ele>
        <time>2017-02-12T15:28:02Z</time>
      </trkpt>
      <trkpt lat="42.55314" lon="3.04479">
        <ele>12</ele>
        <time>2017-02-12T14:54:02Z</time>
      </trkpt>
      <trkpt lat="42.5534" lon="3.04346">
        <ele>13</ele>
        <time>2017-02-12T14:36:02Z</time>
      </trkpt>
      <trkpt lat="42.55704" lon="3.04202">
        <ele>11</ele>
        <time>2017-02-12T14:12:02Z</time>
      </trkpt>
      <trkpt lat="42.55733" lon="3.04595">
        <ele>14</ele>
        <time>2017-02-12T13:08:02Z</time>
      </trkpt>
    </trkseg>
  </trk>
</gpx>